Yoder, Colorado
Current Conditions -  °F | °C
As of 4:56 PM on Monday 20 Oct 2014 (Local Time) from KSHM Reporting Station
Clear Clear  
Wind Chill: 65°   Ceiling: Unl
Heat Index: 65°   Visibility: 10mi
Dew Point: 32°   Wind: 16mph
Humidity: 29%   Direction: 170°S
Pressure: 30.19"   Gusts: 20mph
Location:  38.84°N, 104.22°W
Report Text: KSHM 202256Z AUTO 17014G17KT 10SM CLR 18/00 A3019 RMK AO2 SLP182 T01841002
Loading
Personal Weather Stations






























Interactive Weather Map
Tropical Storm Tracking
New forecast layout! Learn more

10-Day Weather Forecast

Advertisements
Track Severe Weather on mobile